sensor_id;sensor_type;location;lat;lon;timestamp;pressure;altitude;pressure_sealevel;temperature
42119;BMP280;27783;42.782;23.274;2022-10-16T00:00:33;96168.97;;;6.18
42119;BMP280;27783;42.782;23.274;2022-10-16T00:03:00;96172.41;;;6.07
42119;BMP280;27783;42.782;23.274;2022-10-16T00:05:26;96180.25;;;5.92
42119;BMP280;27783;42.782;23.274;2022-10-16T00:07:51;96187.34;;;5.92
42119;BMP280;27783;42.782;23.274;2022-10-16T00:10:17;96182.94;;;5.81
42119;BMP280;27783;42.782;23.274;2022-10-16T00:12:44;96181.91;;;5.70
42119;BMP280;27783;42.782;23.274;2022-10-16T00:15:10;96189.50;;;5.75
42119;BMP280;27783;42.782;23.274;2022-10-16T00:17:35;96189.59;;;5.51
42119;BMP280;27783;42.782;23.274;2022-10-16T00:20:01;96191.44;;;5.51
42119;BMP280;27783;42.782;23.274;2022-10-16T00:22:26;96187.41;;;5.53
42119;BMP280;27783;42.782;23.274;2022-10-16T00:24:52;96185.81;;;5.76
42119;BMP280;27783;42.782;23.274;2022-10-16T00:27:19;96197.03;;;5.49
42119;BMP280;27783;42.782;23.274;2022-10-16T00:29:44;96196.47;;;5.44
42119;BMP280;27783;42.782;23.274;2022-10-16T00:32:09;96192.25;;;5.66
42119;BMP280;27783;42.782;23.274;2022-10-16T00:34:35;96189.50;;;5.48
42119;BMP280;27783;42.782;23.274;2022-10-16T00:37:01;96197.22;;;5.56
42119;BMP280;27783;42.782;23.274;2022-10-16T00:39:27;96187.69;;;5.37
42119;BMP280;27783;42.782;23.274;2022-10-16T00:41:53;96194.16;;;5.54
42119;BMP280;27783;42.782;23.274;2022-10-16T00:44:41;96187.59;;;5.33
42119;BMP280;27783;42.782;23.274;2022-10-16T00:52:30;96183.03;;;5.57
42119;BMP280;27783;42.782;23.274;2022-10-16T00:54:57;96195.63;;;5.40
42119;BMP280;27783;42.782;23.274;2022-10-16T00:57:23;96194.38;;;4.96
42119;BMP280;27783;42.782;23.274;2022-10-16T00:59:49;96200.00;;;5.10
42119;BMP280;27783;42.782;23.274;2022-10-16T01:02:16;96201.28;;;5.15
42119;BMP280;27783;42.782;23.274;2022-10-16T01:04:46;96193.84;;;5.17
42119;BMP280;27783;42.782;23.274;2022-10-16T01:07:34;96197.75;;;4.97
42119;BMP280;27783;42.782;23.274;2022-10-16T01:11:06;96196.53;;;5.06
42119;BMP280;27783;42.782;23.274;2022-10-16T01:13:25;96199.66;;;5.11
42119;BMP280;27783;42.782;23.274;2022-10-16T01:15:55;96207.38;;;5.08
42119;BMP280;27783;42.782;23.274;2022-10-16T01:18:34;96199.78;;;5.03
42119;BMP280;27783;42.782;23.274;2022-10-16T01:21:04;96204.09;;;5.11
42119;BMP280;27783;42.782;23.274;2022-10-16T01:26:36;96198.94;;;4.87
42119;BMP280;27783;42.782;23.274;2022-10-16T01:32:01;96197.44;;;4.75
42119;BMP280;27783;42.782;23.274;2022-10-16T01:34:49;96197.78;;;4.73
42119;BMP280;27783;42.782;23.274;2022-10-16T01:37:55;96203.34;;;4.60
42119;BMP280;27783;42.782;23.274;2022-10-16T01:40:16;96206.28;;;4.59
42119;BMP280;27783;42.782;23.274;2022-10-16T01:42:48;96213.34;;;4.70
42119;BMP280;27783;42.782;23.274;2022-10-16T01:45:17;96212.81;;;4.53
42119;BMP280;27783;42.782;23.274;2022-10-16T01:47:45;96210.19;;;4.41
42119;BMP280;27783;42.782;23.274;2022-10-16T01:50:14;96216.50;;;4.52
42119;BMP280;27783;42.782;23.274;2022-10-16T01:52:43;96214.34;;;4.54
42119;BMP280;27783;42.782;23.274;2022-10-16T01:55:13;96213.44;;;4.62
42119;BMP280;27783;42.782;23.274;2022-10-16T01:57:44;96220.50;;;4.61
42119;BMP280;27783;42.782;23.274;2022-10-16T02:00:13;96217.47;;;4.59
42119;BMP280;27783;42.782;23.274;2022-10-16T02:02:43;96225.00;;;4.61
42119;BMP280;27783;42.782;23.274;2022-10-16T02:07:42;96228.69;;;4.48
42119;BMP280;27783;42.782;23.274;2022-10-16T02:10:08;96228.56;;;4.45
42119;BMP280;27783;42.782;23.274;2022-10-16T02:12:37;96230.88;;;4.34
42119;BMP280;27783;42.782;23.274;2022-10-16T02:15:05;96232.94;;;4.41
42119;BMP280;27783;42.782;23.274;2022-10-16T02:17:32;96232.69;;;4.22
42119;BMP280;27783;42.782;23.274;2022-10-16T02:19:59;96240.00;;;3.85
42119;BMP280;27783;42.782;23.274;2022-10-16T02:22:45;96235.94;;;3.65
42119;BMP280;27783;42.782;23.274;2022-10-16T02:25:24;96248.22;;;3.76
42119;BMP280;27783;42.782;23.274;2022-10-16T02:27:59;96247.38;;;3.72
42119;BMP280;27783;42.782;23.274;2022-10-16T02:30:44;96254.34;;;3.80
42119;BMP280;27783;42.782;23.274;2022-10-16T02:33:13;96251.13;;;3.63
42119;BMP280;27783;42.782;23.274;2022-10-16T02:35:41;96253.41;;;3.64
42119;BMP280;27783;42.782;23.274;2022-10-16T02:38:10;96249.13;;;3.80
42119;BMP280;27783;42.782;23.274;2022-10-16T02:40:37;96249.06;;;3.99
42119;BMP280;27783;42.782;23.274;2022-10-16T02:43:05;96248.69;;;3.78
42119;BMP280;27783;42.782;23.274;2022-10-16T02:45:31;96249.69;;;3.53
42119;BMP280;27783;42.782;23.274;2022-10-16T02:47:56;96262.03;;;3.45
42119;BMP280;27783;42.782;23.274;2022-10-16T02:50:23;96258.41;;;3.37
42119;BMP280;27783;42.782;23.274;2022-10-16T02:52:51;96257.72;;;3.49
42119;BMP280;27783;42.782;23.274;2022-10-16T02:55:17;96262.53;;;3.58
42119;BMP280;27783;42.782;23.274;2022-10-16T02:57:42;96264.28;;;3.66
42119;BMP280;27783;42.782;23.274;2022-10-16T03:00:15;96272.22;;;4.01
42119;BMP280;27783;42.782;23.274;2022-10-16T03:02:41;96266.34;;;4.04
42119;BMP280;27783;42.782;23.274;2022-10-16T03:05:08;96260.75;;;3.50
42119;BMP280;27783;42.782;23.274;2022-10-16T03:07:33;96256.78;;;3.65
42119;BMP280;27783;42.782;23.274;2022-10-16T03:09:59;96268.31;;;3.44
42119;BMP280;27783;42.782;23.274;2022-10-16T03:12:27;96262.28;;;3.32
42119;BMP280;27783;42.782;23.274;2022-10-16T03:14:53;96273.41;;;3.20
42119;BMP280;27783;42.782;23.274;2022-10-16T03:17:20;96268.38;;;2.96
42119;BMP280;27783;42.782;23.274;2022-10-16T03:19:45;96268.06;;;2.97
42119;BMP280;27783;42.782;23.274;2022-10-16T03:22:11;96274.13;;;3.29
42119;BMP280;27783;42.782;23.274;2022-10-16T03:24:37;96273.53;;;3.44
42119;BMP280;27783;42.782;23.274;2022-10-16T03:27:02;96277.66;;;3.45
42119;BMP280;27783;42.782;23.274;2022-10-16T03:29:27;96274.03;;;3.57
42119;BMP280;27783;42.782;23.274;2022-10-16T03:31:55;96278.81;;;3.16
42119;BMP280;27783;42.782;23.274;2022-10-16T03:34:21;96286.84;;;2.83
42119;BMP280;27783;42.782;23.274;2022-10-16T03:36:47;96268.66;;;3.02
42119;BMP280;27783;42.782;23.274;2022-10-16T03:39:13;96277.19;;;3.23
42119;BMP280;27783;42.782;23.274;2022-10-16T03:41:39;96274.97;;;3.13
42119;BMP280;27783;42.782;23.274;2022-10-16T03:44:05;96276.50;;;3.34
42119;BMP280;27783;42.782;23.274;2022-10-16T03:46:31;96274.03;;;3.17
42119;BMP280;27783;42.782;23.274;2022-10-16T03:48:56;96266.78;;;3.03
42119;BMP280;27783;42.782;23.274;2022-10-16T03:51:22;96281.06;;;2.97
42119;BMP280;27783;42.782;23.274;2022-10-16T03:53:48;96271.03;;;2.87
42119;BMP280;27783;42.782;23.274;2022-10-16T03:56:13;96269.38;;;3.03
42119;BMP280;27783;42.782;23.274;2022-10-16T03:58:40;96280.63;;;2.95
42119;BMP280;27783;42.782;23.274;2022-10-16T04:01:05;96272.06;;;2.95
42119;BMP280;27783;42.782;23.274;2022-10-16T04:03:30;96283.16;;;3.03
42119;BMP280;27783;42.782;23.274;2022-10-16T04:05:56;96284.56;;;3.01
42119;BMP280;27783;42.782;23.274;2022-10-16T04:08:22;96277.41;;;3.18
42119;BMP280;27783;42.782;23.274;2022-10-16T04:10:48;96284.06;;;3.27
42119;BMP280;27783;42.782;23.274;2022-10-16T04:13:14;96271.56;;;3.21
42119;BMP280;27783;42.782;23.274;2022-10-16T04:15:41;96272.06;;;3.15
42119;BMP280;27783;42.782;23.274;2022-10-16T04:18:06;96276.66;;;3.17
42119;BMP280;27783;42.782;23.274;2022-10-16T04:20:33;96283.31;;;3.27
42119;BMP280;27783;42.782;23.274;2022-10-16T04:22:59;96276.25;;;3.27
42119;BMP280;27783;42.782;23.274;2022-10-16T04:25:24;96279.75;;;3.31
42119;BMP280;27783;42.782;23.274;2022-10-16T04:27:52;96281.59;;;3.50
42119;BMP280;27783;42.782;23.274;2022-10-16T04:30:20;96287.06;;;3.57
42119;BMP280;27783;42.782;23.274;2022-10-16T04:32:50;96285.09;;;3.54
42119;BMP280;27783;42.782;23.274;2022-10-16T04:35:22;96288.34;;;3.51
42119;BMP280;27783;42.782;23.274;2022-10-16T04:37:48;96295.94;;;3.56
42119;BMP280;27783;42.782;23.274;2022-10-16T04:40:16;96284.19;;;3.50
42119;BMP280;27783;42.782;23.274;2022-10-16T04:42:41;96289.44;;;3.62
42119;BMP280;27783;42.782;23.274;2022-10-16T04:45:07;96302.44;;;3.50
42119;BMP280;27783;42.782;23.274;2022-10-16T04:47:33;96298.25;;;3.58
42119;BMP280;27783;42.782;23.274;2022-10-16T04:49:58;96302.31;;;3.47
42119;BMP280;27783;42.782;23.274;2022-10-16T04:52:26;96303.34;;;3.34
42119;BMP280;27783;42.782;23.274;2022-10-16T04:54:52;96308.53;;;3.34
42119;BMP280;27783;42.782;23.274;2022-10-16T04:57:18;96308.53;;;3.34
42119;BMP280;27783;42.782;23.274;2022-10-16T04:59:45;96312.16;;;3.22
42119;BMP280;27783;42.782;23.274;2022-10-16T05:02:10;96305.81;;;3.31
42119;BMP280;27783;42.782;23.274;2022-10-16T05:04:37;96321.00;;;3.29
42119;BMP280;27783;42.782;23.274;2022-10-16T05:07:02;96308.53;;;3.34
42119;BMP280;27783;42.782;23.274;2022-10-16T05:09:27;96318.59;;;3.44
42119;BMP280;27783;42.782;23.274;2022-10-16T05:11:54;96323.03;;;3.64
42119;BMP280;27783;42.782;23.274;2022-10-16T05:14:20;96319.78;;;3.47
42119;BMP280;27783;42.782;23.274;2022-10-16T05:16:46;96324.41;;;3.21
42119;BMP280;27783;42.782;23.274;2022-10-16T05:19:13;96325.59;;;2.76
42119;BMP280;27783;42.782;23.274;2022-10-16T05:21:38;96324.44;;;2.57
42119;BMP280;27783;42.782;23.274;2022-10-16T05:24:04;96325.53;;;2.92
42119;BMP280;27783;42.782;23.274;2022-10-16T05:26:29;96335.56;;;3.02
42119;BMP280;27783;42.782;23.274;2022-10-16T05:28:56;96336.31;;;3.31
42119;BMP280;27783;42.782;23.274;2022-10-16T05:31:21;96330.69;;;3.20
42119;BMP280;27783;42.782;23.274;2022-10-16T05:33:48;96334.50;;;3.23
42119;BMP280;27783;42.782;23.274;2022-10-16T05:36:14;96344.13;;;3.31
42119;BMP280;27783;42.782;23.274;2022-10-16T05:38:40;96347.63;;;3.54
42119;BMP280;27783;42.782;23.274;2022-10-16T05:41:05;96353.41;;;3.80
42119;BMP280;27783;42.782;23.274;2022-10-16T05:43:31;96349.88;;;3.96
42119;BMP280;27783;42.782;23.274;2022-10-16T05:46:00;96348.97;;;4.12
42119;BMP280;27783;42.782;23.274;2022-10-16T05:48:26;96349.66;;;4.20
42119;BMP280;27783;42.782;23.274;2022-10-16T05:51:03;96350.53;;;4.24
42119;BMP280;27783;42.782;23.274;2022-10-16T05:53:31;96356.84;;;4.35
42119;BMP280;27783;42.782;23.274;2022-10-16T05:55:58;96358.50;;;4.39
42119;BMP280;27783;42.782;23.274;2022-10-16T05:58:29;96370.66;;;4.67
42119;BMP280;27783;42.782;23.274;2022-10-16T06:01:00;96367.28;;;4.78
42119;BMP280;27783;42.782;23.274;2022-10-16T06:03:27;96364.78;;;4.82
42119;BMP280;27783;42.782;23.274;2022-10-16T06:05:53;96366.75;;;5.08
42119;BMP280;27783;42.782;23.274;2022-10-16T06:08:20;96371.66;;;5.21
42119;BMP280;27783;42.782;23.274;2022-10-16T06:10:46;96374.16;;;5.29
42119;BMP280;27783;42.782;23.274;2022-10-16T06:13:12;96383.28;;;5.35
42119;BMP280;27783;42.782;23.274;2022-10-16T06:15:39;96383.50;;;5.42
42119;BMP280;27783;42.782;23.274;2022-10-16T06:18:06;96391.13;;;5.58
42119;BMP280;27783;42.782;23.274;2022-10-16T06:20:32;96393.91;;;5.88
42119;BMP280;27783;42.782;23.274;2022-10-16T06:22:58;96396.38;;;6.08
42119;BMP280;27783;42.782;23.274;2022-10-16T06:25:25;96389.03;;;6.40
42119;BMP280;27783;42.782;23.274;2022-10-16T06:27:50;96392.47;;;6.71
42119;BMP280;27783;42.782;23.274;2022-10-16T06:30:15;96398.41;;;6.98
42119;BMP280;27783;42.782;23.274;2022-10-16T06:32:42;96406.25;;;7.28
42119;BMP280;27783;42.782;23.274;2022-10-16T06:35:07;96406.03;;;7.33
42119;BMP280;27783;42.782;23.274;2022-10-16T06:37:32;96403.75;;;7.65
42119;BMP280;27783;42.782;23.274;2022-10-16T06:39:59;96402.00;;;7.87
42119;BMP280;27783;42.782;23.274;2022-10-16T06:42:25;96408.47;;;7.90
42119;BMP280;27783;42.782;23.274;2022-10-16T06:44:51;96408.16;;;8.28
42119;BMP280;27783;42.782;23.274;2022-10-16T06:47:17;96411.31;;;8.74
42119;BMP280;27783;42.782;23.274;2022-10-16T06:49:43;96414.06;;;9.02
42119;BMP280;27783;42.782;23.274;2022-10-16T06:52:09;96414.78;;;8.99
42119;BMP280;27783;42.782;23.274;2022-10-16T06:54:34;96418.16;;;9.22
42119;BMP280;27783;42.782;23.274;2022-10-16T06:57:00;96421.72;;;9.32
42119;BMP280;27783;42.782;23.274;2022-10-16T06:59:27;96424.34;;;9.76
42119;BMP280;27783;42.782;23.274;2022-10-16T07:01:53;96424.88;;;9.88
42119;BMP280;27783;42.782;23.274;2022-10-16T07:04:20;96422.13;;;10.32
42119;BMP280;27783;42.782;23.274;2022-10-16T07:06:46;96421.38;;;10.35
42119;BMP280;27783;42.782;23.274;2022-10-16T07:09:12;96422.91;;;10.36
42119;BMP280;27783;42.782;23.274;2022-10-16T07:11:39;96424.78;;;10.67
42119;BMP280;27783;42.782;23.274;2022-10-16T07:14:05;96423.50;;;11.22
42119;BMP280;27783;42.782;23.274;2022-10-16T07:16:35;96426.88;;;10.84
42119;BMP280;27783;42.782;23.274;2022-10-16T07:19:01;96422.94;;;11.88
42119;BMP280;27783;42.782;23.274;2022-10-16T07:21:30;96426.66;;;11.83
42119;BMP280;27783;42.782;23.274;2022-10-16T07:23:58;96425.63;;;11.98
42119;BMP280;27783;42.782;23.274;2022-10-16T07:26:25;96417.72;;;11.98
42119;BMP280;27783;42.782;23.274;2022-10-16T07:28:50;96422.25;;;12.67
42119;BMP280;27783;42.782;23.274;2022-10-16T07:31:18;96423.03;;;12.88
42119;BMP280;27783;42.782;23.274;2022-10-16T07:33:45;96422.47;;;12.42
42119;BMP280;27783;42.782;23.274;2022-10-16T07:36:14;96425.25;;;12.69
42119;BMP280;27783;42.782;23.274;2022-10-16T07:38:39;96432.50;;;12.85
42119;BMP280;27783;42.782;23.274;2022-10-16T07:41:10;96427.91;;;12.69
42119;BMP280;27783;42.782;23.274;2022-10-16T07:43:36;96425.41;;;13.40
42119;BMP280;27783;42.782;23.274;2022-10-16T07:46:02;96415.59;;;13.71
42119;BMP280;27783;42.782;23.274;2022-10-16T07:48:30;96416.72;;;13.70
42119;BMP280;27783;42.782;23.274;2022-10-16T07:50:59;96419.75;;;14.00
42119;BMP280;27783;42.782;23.274;2022-10-16T07:53:24;96421.66;;;13.72
42119;BMP280;27783;42.782;23.274;2022-10-16T07:55:50;96418.25;;;13.61
42119;BMP280;27783;42.782;23.274;2022-10-16T07:58:17;96422.75;;;14.18
42119;BMP280;27783;42.782;23.274;2022-10-16T08:00:42;96428.06;;;14.25
42119;BMP280;27783;42.782;23.274;2022-10-16T08:03:08;96430.25;;;14.50
42119;BMP280;27783;42.782;23.274;2022-10-16T08:05:33;96416.66;;;15.18
42119;BMP280;27783;42.782;23.274;2022-10-16T08:08:00;96426.59;;;15.08
42119;BMP280;27783;42.782;23.274;2022-10-16T08:10:27;96422.03;;;15.08
42119;BMP280;27783;42.782;23.274;2022-10-16T08:12:53;96417.97;;;14.90
42119;BMP280;27783;42.782;23.274;2022-10-16T08:15:19;96415.31;;;14.83
42119;BMP280;27783;42.782;23.274;2022-10-16T08:17:55;96407.94;;;15.18
42119;BMP280;27783;42.782;23.274;2022-10-16T08:20:21;96405.38;;;15.57
42119;BMP280;27783;42.782;23.274;2022-10-16T08:22:47;96407.91;;;15.74
42119;BMP280;27783;42.782;23.274;2022-10-16T08:25:13;96408.50;;;16.67
42119;BMP280;27783;42.782;23.274;2022-10-16T08:27:40;96412.28;;;16.34
42119;BMP280;27783;42.782;23.274;2022-10-16T08:30:06;96416.44;;;16.02
42119;BMP280;27783;42.782;23.274;2022-10-16T08:32:32;96405.31;;;15.67
42119;BMP280;27783;42.782;23.274;2022-10-16T08:34:57;96404.19;;;16.76
42119;BMP280;27783;42.782;23.274;2022-10-16T08:37:22;96401.75;;;16.92
42119;BMP280;27783;42.782;23.274;2022-10-16T08:39:48;96404.03;;;16.25
42119;BMP280;27783;42.782;23.274;2022-10-16T08:47:54;96405.09;;;17.73
42119;BMP280;27783;42.782;23.274;2022-10-16T08:50:27;96406.09;;;17.60
42119;BMP280;27783;42.782;23.274;2022-10-16T08:52:53;96407.50;;;17.42
42119;BMP280;27783;42.782;23.274;2022-10-16T08:55:32;96401.63;;;17.28
42119;BMP280;27783;42.782;23.274;2022-10-16T08:57:59;96403.53;;;16.69
42119;BMP280;27783;42.782;23.274;2022-10-16T09:00:26;96406.88;;;17.35
42119;BMP280;27783;42.782;23.274;2022-10-16T09:03:17;96399.28;;;17.81
42119;BMP280;27783;42.782;23.274;2022-10-16T09:11:22;96403.94;;;18.00
42119;BMP280;27783;42.782;23.274;2022-10-16T09:16:41;96389.59;;;19.42
42119;BMP280;27783;42.782;23.274;2022-10-16T09:21:40;96395.59;;;19.30
42119;BMP280;27783;42.782;23.274;2022-10-16T09:24:21;96399.97;;;18.86
42119;BMP280;27783;42.782;23.274;2022-10-16T09:26:49;96395.81;;;18.86
42119;BMP280;27783;42.782;23.274;2022-10-16T09:29:17;96384.94;;;19.11
42119;BMP280;27783;42.782;23.274;2022-10-16T09:31:46;96391.59;;;19.22
42119;BMP280;27783;42.782;23.274;2022-10-16T09:34:32;96395.03;;;19.38
42119;BMP280;27783;42.782;23.274;2022-10-16T09:37:03;96389.63;;;19.73
42119;BMP280;27783;42.782;23.274;2022-10-16T09:39:29;96386.41;;;19.47
42119;BMP280;27783;42.782;23.274;2022-10-16T09:41:55;96389.47;;;19.80
42119;BMP280;27783;42.782;23.274;2022-10-16T09:44:27;96379.44;;;19.68
42119;BMP280;27783;42.782;23.274;2022-10-16T09:47:03;96381.06;;;19.47
42119;BMP280;27783;42.782;23.274;2022-10-16T09:49:28;96386.38;;;19.81
42119;BMP280;27783;42.782;23.274;2022-10-16T09:52:05;96380.56;;;18.64
42119;BMP280;27783;42.782;23.274;2022-10-16T09:54:31;96363.56;;;20.36
42119;BMP280;27783;42.782;23.274;2022-10-16T09:57:07;96374.19;;;19.15
42119;BMP280;27783;42.782;23.274;2022-10-16T09:59:33;96360.47;;;20.21
42119;BMP280;27783;42.782;23.274;2022-10-16T10:02:03;96360.41;;;20.92
42119;BMP280;27783;42.782;23.274;2022-10-16T10:04:39;96350.28;;;22.38
42119;BMP280;27783;42.782;23.274;2022-10-16T10:07:05;96355.25;;;20.86
42119;BMP280;27783;42.782;23.274;2022-10-16T10:09:38;96349.91;;;21.95
42119;BMP280;27783;42.782;23.274;2022-10-16T10:12:05;96354.63;;;20.54
42119;BMP280;27783;42.782;23.274;2022-10-16T10:14:37;96357.16;;;20.18
42119;BMP280;27783;42.782;23.274;2022-10-16T10:19:44;96342.81;;;21.88
42119;BMP280;27783;42.782;23.274;2022-10-16T10:22:18;96349.06;;;21.86
42119;BMP280;27783;42.782;23.274;2022-10-16T10:33:47;96337.78;;;20.26
42119;BMP280;27783;42.782;23.274;2022-10-16T10:36:37;96336.75;;;20.08
42119;BMP280;27783;42.782;23.274;2022-10-16T10:39:38;96316.66;;;22.34
42119;BMP280;27783;42.782;23.274;2022-10-16T10:42:19;96322.94;;;21.74
42119;BMP280;27783;42.782;23.274;2022-10-16T10:46:08;96313.38;;;21.97
42119;BMP280;27783;42.782;23.274;2022-10-16T10:48:24;96311.09;;;22.08
42119;BMP280;27783;42.782;23.274;2022-10-16T10:50:57;96309.19;;;21.15
42119;BMP280;27783;42.782;23.274;2022-10-16T10:53:44;96311.56;;;21.13
42119;BMP280;27783;42.782;23.274;2022-10-16T11:05:00;96298.56;;;21.23
42119;BMP280;27783;42.782;23.274;2022-10-16T11:07:32;96295.22;;;22.55
42119;BMP280;27783;42.782;23.274;2022-10-16T11:10:08;96282.94;;;22.00
42119;BMP280;27783;42.782;23.274;2022-10-16T11:12:42;96302.16;;;21.53
42119;BMP280;27783;42.782;23.274;2022-10-16T11:15:17;96289.50;;;22.53
42119;BMP280;27783;42.782;23.274;2022-10-16T11:18:12;96286.63;;;21.49
42119;BMP280;27783;42.782;23.274;2022-10-16T11:20:51;96291.19;;;21.72
42119;BMP280;27783;42.782;23.274;2022-10-16T11:23:23;96284.75;;;22.03
42119;BMP280;27783;42.782;23.274;2022-10-16T11:25:50;96276.75;;;21.91
42119;BMP280;27783;42.782;23.274;2022-10-16T11:28:23;96272.53;;;22.02
42119;BMP280;27783;42.782;23.274;2022-10-16T11:31:00;96268.28;;;22.76
42119;BMP280;27783;42.782;23.274;2022-10-16T11:33:32;96279.34;;;21.94
42119;BMP280;27783;42.782;23.274;2022-10-16T11:36:16;96284.50;;;21.07
42119;BMP280;27783;42.782;23.274;2022-10-16T11:41:35;96272.59;;;23.41
42119;BMP280;27783;42.782;23.274;2022-10-16T11:46:37;96278.84;;;21.75
42119;BMP280;27783;42.782;23.274;2022-10-16T11:49:11;96284.91;;;21.42
42119;BMP280;27783;42.782;23.274;2022-10-16T11:57:26;96275.28;;;22.11
42119;BMP280;27783;42.782;23.274;2022-10-16T12:00:05;96271.25;;;22.27
42119;BMP280;27783;42.782;23.274;2022-10-16T12:08:29;96259.69;;;23.19
42119;BMP280;27783;42.782;23.274;2022-10-16T12:13:45;96264.25;;;23.10
42119;BMP280;27783;42.782;23.274;2022-10-16T12:18:40;96267.72;;;21.97
42119;BMP280;27783;42.782;23.274;2022-10-16T12:21:06;96265.16;;;21.94
42119;BMP280;27783;42.782;23.274;2022-10-16T12:23:37;96260.31;;;23.02
42119;BMP280;27783;42.782;23.274;2022-10-16T12:26:03;96262.88;;;22.67
42119;BMP280;27783;42.782;23.274;2022-10-16T12:28:32;96250.50;;;23.55
42119;BMP280;27783;42.782;23.274;2022-10-16T12:31:07;96261.34;;;22.96
42119;BMP280;27783;42.782;23.274;2022-10-16T12:33:43;96264.56;;;22.11
42119;BMP280;27783;42.782;23.274;2022-10-16T12:36:39;96264.44;;;22.35
42119;BMP280;27783;42.782;23.274;2022-10-16T12:39:23;96256.53;;;22.20
42119;BMP280;27783;42.782;23.274;2022-10-16T12:42:00;96246.88;;;23.02
42119;BMP280;27783;42.782;23.274;2022-10-16T12:44:32;96253.06;;;22.31
42119;BMP280;27783;42.782;23.274;2022-10-16T12:46:57;96254.03;;;21.71
42119;BMP280;27783;42.782;23.274;2022-10-16T12:49:29;96250.13;;;22.17
42119;BMP280;27783;42.782;23.274;2022-10-16T12:51:55;96260.44;;;21.53
42119;BMP280;27783;42.782;23.274;2022-10-16T12:54:50;96263.47;;;21.88
42119;BMP280;27783;42.782;23.274;2022-10-16T13:20:01;96272.25;;;20.94
42119;BMP280;27783;42.782;23.274;2022-10-16T13:28:00;96275.47;;;20.77
42119;BMP280;27783;42.782;23.274;2022-10-16T13:30:28;96275.69;;;20.83
42119;BMP280;27783;42.782;23.274;2022-10-16T13:33:04;96276.88;;;20.94
42119;BMP280;27783;42.782;23.274;2022-10-16T13:35:33;96286.06;;;20.69
42119;BMP280;27783;42.782;23.274;2022-10-16T13:38:22;96280.16;;;20.61
42119;BMP280;27783;42.782;23.274;2022-10-16T13:43:42;96284.22;;;20.53
42119;BMP280;27783;42.782;23.274;2022-10-16T13:46:22;96281.66;;;20.22
42119;BMP280;27783;42.782;23.274;2022-10-16T13:49:02;96287.50;;;20.33
42119;BMP280;27783;42.782;23.274;2022-10-16T13:51:29;96295.03;;;19.95
42119;BMP280;27783;42.782;23.274;2022-10-16T13:53:56;96292.59;;;20.00
42119;BMP280;27783;42.782;23.274;2022-10-16T13:56:25;96291.75;;;20.03
42119;BMP280;27783;42.782;23.274;2022-10-16T13:59:03;96302.41;;;20.46
42119;BMP280;27783;42.782;23.274;2022-10-16T14:01:50;96292.78;;;19.93
42119;BMP280;27783;42.782;23.274;2022-10-16T14:04:17;96292.19;;;20.69
42119;BMP280;27783;42.782;23.274;2022-10-16T14:06:45;96298.13;;;19.93
42119;BMP280;27783;42.782;23.274;2022-10-16T14:09:24;96301.34;;;19.73
42119;BMP280;27783;42.782;23.274;2022-10-16T14:12:03;96294.66;;;19.81
42119;BMP280;27783;42.782;23.274;2022-10-16T14:14:55;96305.69;;;19.67
42119;BMP280;27783;42.782;23.274;2022-10-16T14:17:30;96301.34;;;19.73
42119;BMP280;27783;42.782;23.274;2022-10-16T14:19:58;96298.09;;;19.35
42119;BMP280;27783;42.782;23.274;2022-10-16T14:24:59;96298.34;;;19.24
42119;BMP280;27783;42.782;23.274;2022-10-16T14:27:31;96295.91;;;19.14
42119;BMP280;27783;42.782;23.274;2022-10-16T14:30:23;96304.97;;;18.86
42119;BMP280;27783;42.782;23.274;2022-10-16T14:32:58;96293.84;;;18.87
42119;BMP280;27783;42.782;23.274;2022-10-16T14:35:38;96303.97;;;18.80
42119;BMP280;27783;42.782;23.274;2022-10-16T14:38:05;96301.88;;;18.87
42119;BMP280;27783;42.782;23.274;2022-10-16T14:40:35;96304.59;;;18.49
42119;BMP280;27783;42.782;23.274;2022-10-16T14:43:02;96303.97;;;18.42
42119;BMP280;27783;42.782;23.274;2022-10-16T14:45:30;96307.22;;;18.34
42119;BMP280;27783;42.782;23.274;2022-10-16T14:48:04;96315.44;;;18.23
42119;BMP280;27783;42.782;23.274;2022-10-16T14:50:31;96318.22;;;18.17
42119;BMP280;27783;42.782;23.274;2022-10-16T14:53:04;96320.13;;;17.97
42119;BMP280;27783;42.782;23.274;2022-10-16T14:55:36;96319.25;;;18.03
42119;BMP280;27783;42.782;23.274;2022-10-16T14:58:02;96309.72;;;17.84
42119;BMP280;27783;42.782;23.274;2022-10-16T15:00:28;96329.72;;;17.69
42119;BMP280;27783;42.782;23.274;2022-10-16T15:03:25;96332.00;;;17.48
42119;BMP280;27783;42.782;23.274;2022-10-16T15:06:36;96331.94;;;17.29
42119;BMP280;27783;42.782;23.274;2022-10-16T15:09:22;96325.47;;;17.04
42119;BMP280;27783;42.782;23.274;2022-10-16T15:11:49;96331.75;;;16.91
42119;BMP280;27783;42.782;23.274;2022-10-16T15:14:15;96327.13;;;16.95
42119;BMP280;27783;42.782;23.274;2022-10-16T15:16:41;96338.16;;;16.65
42119;BMP280;27783;42.782;23.274;2022-10-16T15:19:07;96332.22;;;16.54
42119;BMP280;27783;42.782;23.274;2022-10-16T15:21:33;96342.28;;;16.40
42119;BMP280;27783;42.782;23.274;2022-10-16T15:23:59;96329.66;;;16.15
42119;BMP280;27783;42.782;23.274;2022-10-16T15:26:30;96339.81;;;16.26
42119;BMP280;27783;42.782;23.274;2022-10-16T15:28:56;96348.31;;;16.11
42119;BMP280;27783;42.782;23.274;2022-10-16T15:31:24;96351.88;;;15.98
42119;BMP280;27783;42.782;23.274;2022-10-16T15:34:05;96360.41;;;15.80
42119;BMP280;27783;42.782;23.274;2022-10-16T15:36:37;96358.63;;;15.67
42119;BMP280;27783;42.782;23.274;2022-10-16T15:39:04;96361.81;;;15.87
42119;BMP280;27783;42.782;23.274;2022-10-16T15:41:29;96363.41;;;15.39
42119;BMP280;27783;42.782;23.274;2022-10-16T15:43:57;96366.91;;;15.26
42119;BMP280;27783;42.782;23.274;2022-10-16T15:46:23;96368.44;;;15.27
42119;BMP280;27783;42.782;23.274;2022-10-16T15:48:55;96372.00;;;15.03
42119;BMP280;27783;42.782;23.274;2022-10-16T15:51:22;96370.06;;;15.11
42119;BMP280;27783;42.782;23.274;2022-10-16T15:53:47;96385.38;;;14.83
42119;BMP280;27783;42.782;23.274;2022-10-16T15:56:14;96383.59;;;14.60
42119;BMP280;27783;42.782;23.274;2022-10-16T15:58:40;96388.88;;;14.63
42119;BMP280;27783;42.782;23.274;2022-10-16T16:01:11;96392.31;;;14.57
42119;BMP280;27783;42.782;23.274;2022-10-16T16:03:43;96398.41;;;14.50